Terminal Aerodrome Forecast
Issued by NWS Sterling, VA

Current Version | Previous Version | Graphics & Text | Print | Product List | Glossary On
Versions: 1 2 3 4 5 6 7 8 9 10 11 12 13 14
000
FTUS41 KLWX 031720
TAFMRB
TAF
KMRB 031720Z 0318/0418 31005KT P6SM VCTS BKN060CB
     FM040000 32004KT P6SM FEW050 SCT130
     FM040600 VRB03KT 5SM BR FEW050 SCT130
     FM040900 VRB03KT 2SM BR FEW050 SCT130
     FM041200 VRB03KT 5SM BR FEW050 SCT130
     FM041400 03005KT P6SM BKN050 BKN130=

USA.gov is the U.S. government's official web portal to all federal, state and local government web resources and services.